| time (UTC) | temp C | wind direction | speed KPH | gust KPH | rain 1hr cm | rain 24hr cm | rain mn cm | humidity % | barometer mb |
| 20260503072508 | 20 | 66 | 8.0 | 19.3 | 0.15 | 1.14 | 0.41 | 92 | 1013.4 |
| 20260503072010 | 20 | 100 | 8.0 | 14.5 | 0.18 | 1.14 | 0.41 | 92 | 1013.4 |
| 20260503071525 | 20 | 75 | 8.0 | 14.5 | 0.23 | 1.14 | 0.41 | 92 | 1013.5 |
| 20260503071006 | 20 | 90 | 8.0 | 14.5 | 0.25 | 1.12 | 0.38 | 93 | 1013.6 |
| 20260503070509 | 20 | 91 | 8.0 | 16.1 | 0.28 | 1.12 | 0.38 | 93 | 1013.7 |
| 20260503055008 | 21 | 89 | 1.6 | 4.8 | 0.03 | 0.76 | 0.03 | 93 | 1013.8 |
| 20260503054536 | 21 | 79 | 3.2 | 4.8 | 0.00 | 0.74 | 0.00 | 93 | 1013.9 |
| 20260503054009 | 21 | 70 | 1.6 | 3.2 | 0.00 | 0.74 | 0.00 | 93 | 1014.0 |
| 20260503053508 | 21 | 20 | 0.0 | 3.2 | 0.00 | 0.74 | 0.00 | 92 | 1014.1 |
| 20260503053018 | 21 | 4 | 0.0 | 3.2 | 0.00 | 0.74 | 0.00 | 92 | 1014.1 |
| 20260503052507 | 21 | 2 | 1.6 | 3.2 | 0.00 | 0.74 | 0.00 | 92 | 1014.0 |
| 20260503052008 | 21 | 27 | 1.6 | 3.2 | 0.00 | 0.74 | 0.00 | 92 | 1013.8 |
| 20260503051523 | 21 | 324 | 0.0 | 3.2 | 0.00 | 0.74 | 0.00 | 92 | 1013.8 |
| 20260503051007 | 21 | 297 | 0.0 | 3.2 | 0.00 | 0.74 | 0.00 | 92 | 1013.9 |
| 20260503050507 | 21 | 286 | 1.6 | 4.8 | 0.00 | 0.74 | 0.00 | 92 | 1013.9 |
| 20260503050029 | 21 | 253 | 3.2 | 4.8 | 0.00 | 0.74 | 0.00 | 93 | 1014.1 |
| 20260503045511 | 21 | 291 | 1.6 | 4.8 | 0.00 | 0.74 | 0.00 | 93 | 1014.3 |
| 20260503045012 | 21 | 295 | 3.2 | 4.8 | 0.00 | 0.74 | 0.00 | 92 | 1014.1 |
| 20260503044527 | 21 | 249 | 1.6 | 3.2 | 0.00 | 0.74 | 0.00 | 92 | 1014.0 |
| 20260503044009 | 21 | 274 | 1.6 | 8.0 | 0.00 | 0.74 | 0.00 | 92 | 1014.0 |
| 20260503043507 | 21 | 253 | 1.6 | 8.0 | 0.00 | 0.74 | 0.00 | 92 | 1013.9 |
| 20260503043029 | 21 | 250 | 3.2 | 6.4 | 0.00 | 0.74 | 0.00 | 92 | 1013.9 |
| 20260503042511 | 21 | 262 | 1.6 | 4.8 | 0.00 | 0.74 | 0.00 | 92 | 1014.0 |
| 20260503042007 | 21 | 268 | 1.6 | 4.8 | 0.00 | 0.74 | 0.00 | 92 | 1014.1 |
| 20260503041522 | 21 | 256 | 3.2 | 4.8 | 0.00 | 0.74 | 0.00 | 92 | 1014.0 |
| 20260503041008 | 21 | 228 | 3.2 | 4.8 | 0.00 | 0.74 | 0.00 | 92 | 1013.8 |
| 20260503040506 | 21 | 251 | 3.2 | 4.8 | 0.00 | 0.74 | 0.00 | 92 | 1013.8 |
| 20260503040017 | 21 | 232 | 1.6 | 4.8 | 0.00 | 0.74 | 0.00 | 92 | 1013.9 |
| 20260503035503 | 21 | 264 | 1.6 | 4.8 | 0.00 | 0.74 | 0.74 | 92 | 1013.9 |
| 20260503035004 | 21 | 282 | 1.6 | 4.8 | 0.00 | 0.74 | 0.74 | 92 | 1013.8 |
| 20260503034511 | 21 | 278 | 1.6 | 4.8 | 0.00 | 0.74 | 0.74 | 92 | 1013.7 |
| 20260503034005 | 21 | 286 | 1.6 | 4.8 | 0.00 | 0.74 | 0.74 | 92 | 1013.6 |
| 20260503033505 | 21 | 262 | 1.6 | 6.4 | 0.00 | 0.74 | 0.74 | 92 | 1013.6 |
| 20260503033013 | 21 | 264 | 1.6 | 6.4 | 0.00 | 0.74 | 0.74 | 92 | 1013.5 |
| 20260503032503 | 21 | 270 | 3.2 | 6.4 | 0.00 | 0.74 | 0.74 | 92 | 1013.3 |
| 20260503032007 | 21 | 301 | 3.2 | 6.4 | 0.00 | 0.74 | 0.74 | 92 | 1013.3 |
| 20260503031519 | 21 | 268 | 4.8 | 6.4 | 0.00 | 0.74 | 0.74 | 92 | 1013.1 |
| 20260503031008 | 21 | 290 | 3.2 | 4.8 | 0.00 | 0.74 | 0.74 | 92 | 1012.9 |
| 20260503030507 | 21 | 291 | 1.6 | 4.8 | 0.00 | 0.74 | 0.74 | 92 | 1012.7 |
| 20260503030025 | 21 | 285 | 1.6 | 6.4 | 0.00 | 0.74 | 0.74 | 92 | 1012.5 |
| 20260503025503 | 21 | 246 | 1.6 | 6.4 | 0.00 | 0.74 | 0.74 | 92 | 1012.5 |
| 20260503025010 | 21 | 240 | 3.2 | 8.0 | 0.00 | 0.74 | 0.74 | 93 | 1012.7 |
| 20260503024508 | 21 | 262 | 3.2 | 8.0 | 0.00 | 0.74 | 0.74 | 93 | 1013.0 |
| 20260503024004 | 21 | 266 | 3.2 | 6.4 | 0.00 | 0.74 | 0.74 | 93 | 1013.1 |
| 20260503023503 | 21 | 272 | 1.6 | 6.4 | 0.00 | 0.74 | 0.74 | 93 | 1012.9 |
| 20260503023009 | 21 | 223 | 1.6 | 6.4 | 0.00 | 0.74 | 0.74 | 93 | 1012.6 |
| 20260503022508 | 21 | 256 | 1.6 | 4.8 | 0.00 | 0.74 | 0.74 | 93 | 1012.7 |
| 20260503022007 | 21 | 249 | 1.6 | 6.4 | 0.00 | 0.74 | 0.74 | 93 | 1012.8 |
| 20260503021519 | 21 | 276 | 1.6 | 6.4 | 0.00 | 0.74 | 0.74 | 93 | 1012.9 |
| 20260503021007 | 21 | 242 | 3.2 | 8.0 | 0.00 | 0.74 | 0.74 | 93 | 1013.0 |
| 20260503020507 | 21 | 260 | 1.6 | 8.0 | 0.00 | 0.74 | 0.74 | 93 | 1013.0 |
| 20260503020021 | 21 | 242 | 4.8 | 8.0 | 0.00 | 0.74 | 0.74 | 93 | 1012.9 |
| 20260503015508 | 21 | 272 | 3.2 | 8.0 | 0.00 | 0.74 | 0.74 | 93 | 1013.0 |
| 20260503015010 | 21 | 254 | 4.8 | 8.0 | 0.00 | 0.74 | 0.74 | 93 | 1012.9 |
| 20260503014507 | 21 | 237 | 3.2 | 8.0 | 0.00 | 0.74 | 0.74 | 93 | 1012.8 |
| 20260503014003 | 21 | 253 | 3.2 | 6.4 | 0.00 | 0.74 | 0.74 | 93 | 1012.7 |
| 20260503013505 | 21 | 327 | 3.2 | 4.8 | 0.00 | 0.74 | 0.74 | 93 | 1012.8 |
| 20260503013009 | 21 | 260 | 1.6 | 3.2 | 0.00 | 0.74 | 0.74 | 93 | 1012.5 |
| 20260503012505 | 21 | 287 | 1.6 | 3.2 | 0.00 | 0.74 | 0.74 | 93 | 1012.2 |
| 20260503012006 | 21 | 178 | 0.0 | 3.2 | 0.00 | 0.74 | 0.74 | 93 | 1011.5 |
| 20260503011525 | 21 | 152 | 1.6 | 3.2 | 0.00 | 0.74 | 0.74 | 93 | 1011.2 |
| 20260503011004 | 21 | 150 | 0.0 | 3.2 | 0.00 | 0.74 | 0.74 | 93 | 1011.2 |
| 20260503010507 | 21 | 198 | 0.0 | 3.2 | 0.00 | 0.74 | 0.74 | 93 | 1011.4 |
| 20260503010020 | 21 | 204 | 0.0 | 3.2 | 0.00 | 0.74 | 0.74 | 92 | 1011.3 |
| 20260503005511 | 21 | 239 | 0.0 | 3.2 | 0.00 | 0.74 | 0.74 | 92 | 1011.3 |
| 20260503005011 | 21 | 272 | 0.0 | 3.2 | 0.00 | 0.74 | 0.74 | 92 | 1011.5 |
| 20260503004522 | 21 | 272 | 0.0 | 3.2 | 0.03 | 0.74 | 0.74 | 92 | 1011.7 |
| 20260503004009 | 21 | 282 | 1.6 | 4.8 | 0.03 | 0.74 | 0.74 | 92 | 1011.7 |
| 20260503003503 | 21 | 269 | 1.6 | 6.4 | 0.03 | 0.74 | 0.74 | 92 | 1011.5 |
| 20260503003007 | 21 | 276 | 3.2 | 8.0 | 0.03 | 0.74 | 0.74 | 92 | 1011.4 |
| 20260503002504 | 21 | 274 | 0.0 | 11.3 | 0.05 | 0.74 | 0.74 | 92 | 1010.9 |
| 20260503002004 | 21 | 239 | 1.6 | 12.9 | 0.05 | 0.74 | 0.74 | 92 | 1011.0 |
| 20260503001510 | 21 | 242 | 6.4 | 12.9 | 0.05 | 0.74 | 0.74 | 92 | 1011.1 |
| 20260503001005 | 21 | 252 | 4.8 | 11.3 | 0.08 | 0.74 | 0.74 | 92 | 1011.1 |
| 20260503000506 | 21 | 296 | 6.4 | 14.5 | 0.08 | 0.74 | 0.74 | 92 | 1011.4 |
| 20260503000014 | 21 | 292 | 4.8 | 14.5 | 0.08 | 0.74 | 0.74 | 92 | 1011.8 |
| 20260502235504 | 21 | 271 | 8.0 | 14.5 | 0.08 | 0.74 | 0.74 | 92 | 1011.1 |
| 20260502235008 | 21 | 275 | 6.4 | 12.9 | 0.08 | 0.74 | 0.74 | 92 | 1010.3 |
| 20260502234533 | 21 | 244 | 4.8 | 12.9 | 0.05 | 0.71 | 0.71 | 92 | 1009.3 |
| 20260502234008 | 21 | 202 | 4.8 | 9.7 | 0.05 | 0.71 | 0.71 | 92 | 1009.8 |
| 20260502233508 | 21 | 216 | 3.2 | 6.4 | 0.05 | 0.71 | 0.71 | 92 | 1010.1 |
| 20260502233026 | 21 | 179 | 3.2 | 6.4 | 0.08 | 0.71 | 0.71 | 92 | 1010.3 |
| 20260502232503 | 21 | 229 | 1.6 | 6.4 | 0.05 | 0.69 | 0.69 | 91 | 1011.0 |
| 20260502232005 | 21 | 252 | 1.6 | 6.4 | 0.08 | 0.69 | 0.69 | 91 | 1011.1 |
| 20260502231511 | 21 | 249 | 1.6 | 4.8 | 0.10 | 0.69 | 0.69 | 91 | 1010.9 |
| 20260502231009 | 21 | 276 | 1.6 | 8.0 | 0.10 | 0.66 | 0.66 | 91 | 1010.8 |
| 20260502230505 | 21 | 267 | 1.6 | 9.7 | 0.13 | 0.66 | 0.66 | 91 | 1010.8 |
| 20260502230019 | 22 | 264 | 3.2 | 9.7 | 0.15 | 0.66 | 0.66 | 91 | 1010.9 |
| 20260502225511 | 22 | 185 | 1.6 | 8.0 | 0.18 | 0.66 | 0.66 | 91 | 1010.7 |
| 20260502225007 | 22 | 266 | 4.8 | 8.0 | 0.18 | 0.66 | 0.66 | 91 | 1010.9 |
| 20260502224530 | 22 | 231 | 4.8 | 8.0 | 0.20 | 0.66 | 0.66 | 91 | 1010.9 |
| 20260502224008 | 22 | 238 | 3.2 | 3.2 | 0.20 | 0.66 | 0.66 | 91 | 1010.7 |
| 20260502223508 | 22 | 51 | 0.0 | 3.2 | 0.20 | 0.66 | 0.66 | 91 | 1010.3 |
| 20260502223021 | 22 | 51 | 0.0 | 3.2 | 0.18 | 0.64 | 0.64 | 90 | 1010.5 |
| 20260502222508 | 22 | 51 | 0.0 | 3.2 | 0.18 | 0.64 | 0.64 | 90 | 1010.6 |
| 20260502222012 | 22 | 336 | 0.0 | 3.2 | 0.18 | 0.61 | 0.61 | 90 | 1010.6 |
| 20260502221526 | 22 | 336 | 0.0 | 3.2 | 0.18 | 0.58 | 0.58 | 90 | 1011.0 |
| 20260502221004 | 22 | 11 | 0.0 | 3.2 | 0.18 | 0.56 | 0.56 | 90 | 1010.9 |
| 20260502220506 | 22 | 169 | 0.0 | 4.8 | 0.18 | 0.53 | 0.53 | 90 | 1010.9 |
| 20260502220021 | 22 | 272 | 1.6 | 4.8 | 0.15 | 0.51 | 0.51 | 90 | 1011.2 |
| 20260502215508 | 22 | 270 | 1.6 | 4.8 | 0.13 | 0.48 | 0.48 | 90 | 1011.2 |
| 20260502215006 | 22 | 235 | 0.0 | 6.4 | 0.13 | 0.48 | 0.48 | 89 | 1010.7 |
| 20260502214516 | 22 | 216 | 1.6 | 6.4 | 0.10 | 0.46 | 0.46 | 89 | 1010.7 |
| 20260502214009 | 22 | 229 | 3.2 | 6.4 | 0.10 | 0.46 | 0.46 | 89 | 1010.4 |
| 20260502213506 | 22 | 208 | 0.0 | 4.8 | 0.13 | 0.46 | 0.46 | 89 | 1010.4 |
| 20260502213030 | 22 | 149 | 1.6 | 4.8 | 0.13 | 0.46 | 0.46 | 88 | 1010.4 |
| 20260502212508 | 22 | 239 | 1.6 | 3.2 | 0.13 | 0.46 | 0.46 | 87 | 1010.7 |
| 20260502212013 | 22 | 240 | 0.0 | 6.4 | 0.43 | 0.43 | 0.43 | 87 | 1010.2 |
| 20260502211524 | 22 | 305 | 1.6 | 8.0 | 0.41 | 0.41 | 0.41 | 87 | 1010.6 |
| 20260502211011 | 23 | 316 | 4.8 | 9.7 | 0.38 | 0.38 | 0.38 | 87 | 1010.7 |
| 20260502210510 | 23 | 273 | 3.2 | 9.7 | 0.36 | 0.36 | 0.36 | 86 | 1010.7 |
| 20260502210012 | 23 | 309 | 3.2 | 8.0 | 0.36 | 0.36 | 0.36 | 86 | 1010.7 |
| 20260502205503 | 23 | 318 | 1.6 | 8.0 | 0.36 | 0.36 | 0.36 | 85 | 1010.7 |
| 20260502205007 | 23 | 358 | 0.0 | 4.8 | 0.36 | 0.36 | 0.36 | 84 | 1010.5 |
| 20260502204515 | 24 | 18 | 1.6 | 6.4 | 0.36 | 0.36 | 0.36 | 83 | 1010.6 |
| 20260502204008 | 24 | 22 | 1.6 | 8.0 | 0.36 | 0.36 | 0.36 | 83 | 1010.4 |
| 20260502203507 | 25 | 295 | 1.6 | 8.0 | 0.33 | 0.33 | 0.33 | 82 | 1010.4 |
| 20260502203020 | 25 | 334 | 1.6 | 12.9 | 0.33 | 0.33 | 0.33 | 80 | 1010.4 |
| 20260502202506 | 26 | 18 | 3.2 | 22.5 | 0.33 | 0.33 | 0.33 | 78 | 1010.5 |
| 20260502202010 | 27 | 353 | 9.7 | 22.5 | 0.00 | 0.00 | 0.00 | 73 | 1010.5 |
| 20260502201535 | 27 | 43 | 6.4 | 17.7 | 0.00 | 0.00 | 0.00 | 77 | 1010.3 |
| 20260502201009 | 28 | 310 | 1.6 | 8.0 | 0.00 | 0.00 | 0.00 | 77 | 1010.0 |
| 20260502200507 | 28 | 302 | 3.2 | 12.9 | 0.00 | 0.00 | 0.00 | 77 | 1010.1 |
| 20260502200026 | 28 | 293 | 6.4 | 16.1 | 0.00 | 0.00 | 0.00 | 77 | 1010.1 |
| 20260502195507 | 28 | 300 | 4.8 | 16.1 | 0.00 | 0.00 | 0.00 | 77 | 1010.3 |
| 20260502195003 | 28 | 294 | 6.4 | 12.9 | 0.00 | 0.00 | 0.00 | 77 | 1010.1 |
| 20260502194527 | 27 | 319 | 4.8 | 14.5 | 0.00 | 0.00 | 0.00 | 78 | 1010.1 |
| 20260502194005 | 27 | 294 | 6.4 | 17.7 | 0.00 | 0.00 | 0.00 | 77 | 1010.1 |
| 20260502193507 | 27 | 296 | 6.4 | 17.7 | 0.00 | 0.00 | 0.00 | 77 | 1010.2 |
| 20260502193032 | 27 | 287 | 4.8 | 12.9 | 0.00 | 0.00 | 0.00 | 77 | 1010.5 |
| 20260502192512 | 27 | 302 | 6.4 | 12.9 | 0.00 | 0.00 | 0.00 | 75 | 1010.6 |
| 20260502192007 | 27 | 8 | 4.8 | 14.5 | 0.00 | 0.00 | 0.00 | 75 | 1010.7 |
| 20260502191530 | 28 | 295 | 8.0 | 19.3 | 0.00 | 0.00 | 0.00 | 75 | 1010.7 |
| 20260502191006 | 28 | 278 | 8.0 | 19.3 | 0.00 | 0.00 | 0.00 | 73 | 1010.7 |
| 20260502190503 | 28 | 329 | 8.0 | 16.1 | 0.00 | 0.00 | 0.00 | 73 | 1010.7 |
| 20260502190006 | 28 | 9 | 8.0 | 16.1 | 0.00 | 0.00 | 0.00 | 73 | 1010.7 |
| 20260502185504 | 28 | 298 | 8.0 | 16.1 | 0.00 | 0.00 | 0.00 | 72 | 1010.6 |
| 20260502185004 | 28 | 298 | 4.8 | 19.3 | 0.00 | 0.00 | 0.00 | 72 | 1010.6 |
| 20260502184517 | 29 | 270 | 8.0 | 20.9 | 0.00 | 0.00 | 0.00 | 70 | 1010.7 |
| 20260502184003 | 29 | 276 | 8.0 | 20.9 | 0.00 | 0.00 | 0.00 | 70 | 1010.7 |
| 20260502183511 | 29 | 308 | 8.0 | 20.9 | 0.00 | 0.00 | 0.00 | 68 | 1010.8 |
| 20260502183018 | 30 | 289 | 11.3 | 20.9 | 0.00 | 0.00 | 0.00 | 67 | 1010.9 |
| 20260502182511 | 30 | 276 | 11.3 | 19.3 | 0.00 | 0.00 | 0.00 | 66 | 1010.8 |
| 20260502182008 | 30 | 2 | 12.9 | 20.9 | 0.00 | 0.00 | 0.00 | 65 | 1010.8 |
| 20260502181521 | 30 | 318 | 12.9 | 22.5 | 0.00 | 0.00 | 0.00 | 63 | 1010.8 |
| 20260502181008 | 30 | 283 | 12.9 | 27.4 | 0.00 | 0.00 | 0.00 | 63 | 1010.8 |
| 20260502180509 | 31 | 285 | 12.9 | 27.4 | 0.00 | 0.00 | 0.00 | 63 | 1010.9 |
| 20260502170510 | 31 | 283 | 14.5 | 24.1 | 0.00 | 0.00 | 0.00 | 64 | 1011.1 |
| 20260502164004 | 31 | 292 | 11.3 | 27.4 | 0.00 | 0.00 | 0.00 | 64 | 1011.2 |
| 20260502163504 | 31 | 293 | 17.7 | 27.4 | 0.00 | 0.00 | 0.00 | 63 | 1011.1 |
| 20260502163036 | 31 | 301 | 16.1 | 29.0 | 0.00 | 0.00 | 0.00 | 63 | 1011.1 |
| 20260502162505 | 31 | 326 | 14.5 | 35.4 | 0.00 | 0.00 | 0.00 | 63 | 1011.2 |
| 20260502162006 | 31 | 301 | 12.9 | 35.4 | 0.00 | 0.00 | 0.00 | 63 | 1011.4 |
| 20260502161517 | 31 | 341 | 19.3 | 32.2 | 0.00 | 0.00 | 0.00 | 62 | 1011.4 |
| 20260502161008 | 31 | 311 | 11.3 | 29.0 | 0.00 | 0.00 | 0.00 | 64 | 1011.4 |
| 20260502160508 | 31 | 310 | 12.9 | 29.0 | 0.00 | 0.00 | 0.00 | 62 | 1011.5 |
| 20260502152013 | 30 | 283 | 9.7 | 29.0 | 0.00 | 0.00 | 0.00 | 68 | 1011.2 |
| 20260502151526 | 30 | 280 | 14.5 | 30.6 | 0.00 | 0.00 | 0.00 | 68 | 1011.3 |
| 20260502151006 | 30 | 241 | 14.5 | 30.6 | 0.00 | 0.00 | 0.00 | 68 | 1011.1 |
| 20260502150506 | 30 | 292 | 16.1 | 32.2 | 0.00 | 0.00 | 0.00 | 69 | 1011.1 |
| 20260502130505 | 23 | 233 | 6.4 | 12.9 | 0.00 | 0.00 | 0.00 | 85 | 1010.2 |
| 20260502123502 | 22 | 233 | 1.6 | 8.0 | 0.00 | 0.00 | 0.00 | 86 | 1010.3 |
| 20260502123003 | 22 | 224 | 3.2 | 8.0 | 0.00 | 0.00 | 0.00 | 86 | 1010.3 |
| 20260502122504 | 22 | 198 | 3.2 | 8.0 | 0.00 | 0.00 | 0.00 | 87 | 1010.3 |
| 20260502122004 | 22 | 206 | 1.6 | 6.4 | 0.00 | 0.00 | 0.00 | 88 | 1010.3 |
| 20260502121512 | 21 | 237 | 0.0 | 4.8 | 0.00 | 0.00 | 0.00 | 90 | 1010.3 |
| 20260502121005 | 21 | 258 | 1.6 | 4.8 | 0.00 | 0.00 | 0.00 | 89 | 1010.4 |
| 20260502120505 | 21 | 180 | 1.6 | 3.2 | 0.00 | 0.00 | 0.00 | 90 | 1010.3 |
| 20260502115504 | 21 | 196 | 1.6 | 3.2 | 0.00 | 0.00 | 0.00 | 92 | 1010.2 |
| 20260502115004 | 20 | 179 | 1.6 | 4.8 | 0.00 | 0.00 | 0.00 | 93 | 1010.2 |
| 20260502114517 | 20 | 185 | 1.6 | 4.8 | 0.00 | 0.00 | 0.00 | 93 | 1010.2 |
| 20260502114005 | 20 | 207 | 1.6 | 4.8 | 0.00 | 0.00 | 0.00 | 93 | 1010.1 |
| 20260502113508 | 20 | 222 | 1.6 | 4.8 | 0.00 | 0.00 | 0.00 | 93 | 1010.1 |
| 20260502113023 | 20 | 210 | 1.6 | 3.2 | 0.00 | 0.00 | 0.00 | 93 | 1010.1 |
| 20260502112504 | 20 | 186 | 1.6 | 3.2 | 0.00 | 0.00 | 0.00 | 93 | 1010.0 |
| 20260502112004 | 20 | 147 | 1.6 | 4.8 | 0.00 | 0.00 | 0.00 | 93 | 1010.0 |
| 20260502111508 | 20 | 190 | 1.6 | 4.8 | 0.00 | 0.00 | 0.00 | 93 | 1009.9 |
| 20260502111004 | 19 | 227 | 1.6 | 6.4 | 0.00 | 0.00 | 0.00 | 93 | 1009.9 |
| 20260502110505 | 20 | 214 | 3.2 | 6.4 | 0.00 | 0.00 | 0.00 | 93 | 1009.8 |
| 20260502110014 | 20 | 224 | 1.6 | 8.0 | 0.00 | 0.00 | 0.00 | 93 | 1009.8 |
| 20260502105505 | 20 | 225 | 1.6 | 8.0 | 0.00 | 0.00 | 0.00 | 93 | 1009.8 |
| 20260502105004 | 20 | 199 | 1.6 | 4.8 | 0.00 | 0.00 | 0.00 | 93 | 1009.9 |
| 20260502104518 | 20 | 190 | 1.6 | 9.7 | 0.00 | 0.00 | 0.00 | 93 | 1009.9 |
| 20260502104007 | 20 | 176 | 1.6 | 9.7 | 0.00 | 0.00 | 0.00 | 93 | 1009.6 |
| 20260502103510 | 20 | 210 | 4.8 | 9.7 | 0.00 | 0.00 | 0.00 | 93 | 1009.5 |
| 20260502103022 | 20 | 215 | 3.2 | 8.0 | 0.00 | 0.00 | 0.00 | 93 | 1009.5 |
| 20260502102511 | 20 | 220 | 3.2 | 6.4 | 0.00 | 0.00 | 0.00 | 93 | 1009.6 |
| 20260502102010 | 20 | 206 | 1.6 | 8.0 | 0.00 | 0.00 | 0.00 | 93 | 1009.6 |
| 20260502101503 | 20 | 199 | 3.2 | 8.0 | 0.00 | 0.00 | 0.00 | 93 | 1009.6 |
| 20260502101003 | 20 | 245 | 1.6 | 4.8 | 0.00 | 0.00 | 0.00 | 93 | 1009.7 |
| 20260502100503 | 20 | 184 | 1.6 | 6.4 | 0.00 | 0.00 | 0.00 | 93 | 1009.7 |
| 20260502091526 | 20 | 196 | 0.0 | 3.2 | 0.00 | 0.00 | 0.00 | 92 | 1010.0 |
| 20260502091010 | 20 | 204 | 0.0 | 3.2 | 0.00 | 0.00 | 0.00 | 92 | 1010.0 |
| 20260502090509 | 20 | 204 | 0.0 | 3.2 | 0.00 | 0.00 | 0.00 | 92 | 1010.0 |